sensor_id;sensor_type;location;lat;lon;timestamp;pressure;altitude;pressure_sealevel;temperature;humidity
15932;BME280;8065;49.520;11.284;2023-12-20T00:02:23;97362.47;;;8.91;76.30
15932;BME280;8065;49.520;11.284;2023-12-20T00:04:51;97366.53;;;8.97;76.47
15932;BME280;8065;49.520;11.284;2023-12-20T00:07:19;97358.88;;;8.95;76.72
15932;BME280;8065;49.520;11.284;2023-12-20T00:09:47;97355.94;;;8.97;76.83
15932;BME280;8065;49.520;11.284;2023-12-20T00:12:18;97363.41;;;8.95;76.99
15932;BME280;8065;49.520;11.284;2023-12-20T00:14:47;97361.53;;;8.95;77.20
15932;BME280;8065;49.520;11.284;2023-12-20T00:17:15;97358.09;;;8.95;77.45
15932;BME280;8065;49.520;11.284;2023-12-20T00:19:43;97355.47;;;8.95;78.10
15932;BME280;8065;49.520;11.284;2023-12-20T00:22:11;97347.81;;;8.84;78.69
15932;BME280;8065;49.520;11.284;2023-12-20T00:24:40;97346.25;;;8.83;79.03
15932;BME280;8065;49.520;11.284;2023-12-20T00:27:08;97333.78;;;8.93;78.75
15932;BME280;8065;49.520;11.284;2023-12-20T00:29:39;97330.19;;;8.88;79.54
15932;BME280;8065;49.520;11.284;2023-12-20T00:32:08;97330.19;;;8.88;79.59
15932;BME280;8065;49.520;11.284;2023-12-20T00:34:36;97322.56;;;8.96;80.52
15932;BME280;8065;49.520;11.284;2023-12-20T00:37:04;97321.16;;;8.98;80.85
15932;BME280;8065;49.520;11.284;2023-12-20T00:39:33;97321.66;;;9.09;80.72
15932;BME280;8065;49.520;11.284;2023-12-20T00:42:01;97318.06;;;9.13;81.78
15932;BME280;8065;49.520;11.284;2023-12-20T00:44:29;97308.09;;;9.19;82.17
15932;BME280;8065;49.520;11.284;2023-12-20T00:47:00;97316.97;;;9.23;82.57
15932;BME280;8065;49.520;11.284;2023-12-20T00:49:29;97314.78;;;9.25;82.85
15932;BME280;8065;49.520;11.284;2023-12-20T00:51:57;97310.41;;;9.29;82.97
15932;BME280;8065;49.520;11.284;2023-12-20T00:54:25;97312.28;;;9.37;83.01
15932;BME280;8065;49.520;11.284;2023-12-20T00:56:54;97309.31;;;9.39;83.47
15932;BME280;8065;49.520;11.284;2023-12-20T00:59:22;97307.91;;;9.41;83.31
15932;BME280;8065;49.520;11.284;2023-12-20T01:01:50;97305.72;;;9.43;83.55
15932;BME280;8065;49.520;11.284;2023-12-20T01:04:21;97301.63;;;9.54;83.18
15932;BME280;8065;49.520;11.284;2023-12-20T01:06:50;97293.88;;;9.49;83.67
15932;BME280;8065;49.520;11.284;2023-12-20T01:09:16;97300.44;;;9.43;83.79
15932;BME280;8065;49.520;11.284;2023-12-20T01:11:44;97294.97;;;9.48;83.90
15932;BME280;8065;49.520;11.284;2023-12-20T01:14:13;97289.66;;;9.48;84.08
15932;BME280;8065;49.520;11.284;2023-12-20T01:16:42;97294.78;;;9.53;83.79
15932;BME280;8065;49.520;11.284;2023-12-20T01:19:10;97296.63;;;9.62;83.54
15932;BME280;8065;49.520;11.284;2023-12-20T01:21:41;97303.34;;;9.59;84.10
15932;BME280;8065;49.520;11.284;2023-12-20T01:24:09;97293.34;;;9.56;83.79
15932;BME280;8065;49.520;11.284;2023-12-20T01:26:37;97296.00;;;9.65;83.64
15932;BME280;8065;49.520;11.284;2023-12-20T01:29:06;97298.47;;;9.70;83.53
15932;BME280;8065;49.520;11.284;2023-12-20T01:31:34;97291.50;;;9.57;83.91
15932;BME280;8065;49.520;11.284;2023-12-20T01:34:02;97301.94;;;9.62;83.69
15932;BME280;8065;49.520;11.284;2023-12-20T01:36:30;97292.59;;;9.56;83.47
15932;BME280;8065;49.520;11.284;2023-12-20T01:39:01;97289.63;;;9.57;83.32
15932;BME280;8065;49.520;11.284;2023-12-20T01:41:29;97293.50;;;9.60;83.01
15932;BME280;8065;49.520;11.284;2023-12-20T01:43:58;97284.94;;;9.54;83.56
15932;BME280;8065;49.520;11.284;2023-12-20T01:46:26;97271.66;;;9.63;83.23
15932;BME280;8065;49.520;11.284;2023-12-20T01:48:55;97285.09;;;9.58;83.24
15932;BME280;8065;49.520;11.284;2023-12-20T01:51:23;97275.94;;;9.46;83.20
15932;BME280;8065;49.520;11.284;2023-12-20T01:53:54;97257.63;;;9.53;83.22
15932;BME280;8065;49.520;11.284;2023-12-20T01:56:26;97266.25;;;9.50;83.21
15932;BME280;8065;49.520;11.284;2023-12-20T01:58:55;97265.78;;;9.48;83.12
15932;BME280;8065;49.520;11.284;2023-12-20T02:01:24;97264.19;;;9.56;82.93
15932;BME280;8065;49.520;11.284;2023-12-20T02:03:54;97269.16;;;9.58;83.00
15932;BME280;8065;49.520;11.284;2023-12-20T02:06:23;97265.44;;;9.59;82.63
15932;BME280;8065;49.520;11.284;2023-12-20T02:08:53;97269.16;;;9.58;82.69
15932;BME280;8065;49.520;11.284;2023-12-20T02:11:21;97272.22;;;9.30;83.34
15932;BME280;8065;49.520;11.284;2023-12-20T02:13:53;97270.00;;;9.41;82.93
15932;BME280;8065;49.520;11.284;2023-12-20T02:16:21;97268.59;;;9.43;82.88
15932;BME280;8065;49.520;11.284;2023-12-20T02:18:50;97260.25;;;9.62;82.04
15932;BME280;8065;49.520;11.284;2023-12-20T02:21:18;97256.03;;;9.70;81.67
15932;BME280;8065;49.520;11.284;2023-12-20T02:23:50;97253.22;;;9.75;81.47
15932;BME280;8065;49.520;11.284;2023-12-20T02:26:19;97254.78;;;9.76;81.23
15932;BME280;8065;49.520;11.284;2023-12-20T02:28:47;97241.66;;;9.71;81.23
15932;BME280;8065;49.520;11.284;2023-12-20T02:31:15;97261.03;;;9.71;80.86
15932;BME280;8065;49.520;11.284;2023-12-20T02:33:44;97254.47;;;9.69;80.58
15932;BME280;8065;49.520;11.284;2023-12-20T02:36:12;97256.75;;;9.49;81.20
15932;BME280;8065;49.520;11.284;2023-12-20T02:38:40;97250.53;;;9.28;81.33
15932;BME280;8065;49.520;11.284;2023-12-20T02:41:11;97252.88;;;9.30;81.31
15932;BME280;8065;49.520;11.284;2023-12-20T02:43:42;97255.84;;;9.28;81.69
15932;BME280;8065;49.520;11.284;2023-12-20T02:46:10;97247.56;;;9.30;81.75
15932;BME280;8065;49.520;11.284;2023-12-20T02:48:39;97249.13;;;9.31;81.66
15932;BME280;8065;49.520;11.284;2023-12-20T02:51:07;97249.13;;;9.31;81.74
15932;BME280;8065;49.520;11.284;2023-12-20T02:53:36;97253.50;;;9.35;81.68
15932;BME280;8065;49.520;11.284;2023-12-20T02:56:05;97254.44;;;9.31;81.97
15932;BME280;8065;49.520;11.284;2023-12-20T02:58:35;97252.56;;;9.14;82.16
15932;BME280;8065;49.520;11.284;2023-12-20T03:01:04;97261.16;;;9.11;81.78
15932;BME280;8065;49.520;11.284;2023-12-20T03:03:32;97258.50;;;9.11;81.44
15932;BME280;8065;49.520;11.284;2023-12-20T03:06:00;97262.72;;;9.03;81.52
15932;BME280;8065;49.520;11.284;2023-12-20T03:08:28;97260.84;;;9.04;81.41
15932;BME280;8065;49.520;11.284;2023-12-20T03:10:58;97248.53;;;8.99;82.00
15932;BME280;8065;49.520;11.284;2023-12-20T03:13:27;97260.84;;;8.86;81.83
15932;BME280;8065;49.520;11.284;2023-12-20T03:15:57;97254.75;;;8.86;81.49
15932;BME280;8065;49.520;11.284;2023-12-20T03:18:26;97260.84;;;8.86;81.46
15932;BME280;8065;49.520;11.284;2023-12-20T03:20:55;97248.84;;;8.89;81.59
15932;BME280;8065;49.520;11.284;2023-12-20T03:23:23;97254.31;;;8.93;81.16
15932;BME280;8065;49.520;11.284;2023-12-20T03:25:51;97251.19;;;8.73;81.72
15932;BME280;8065;49.520;11.284;2023-12-20T03:28:20;97257.41;;;8.77;81.00
15932;BME280;8065;49.520;11.284;2023-12-20T03:30:48;97256.94;;;8.75;81.56
15932;BME280;8065;49.520;11.284;2023-12-20T03:33:19;97268.19;;;8.64;81.96
15932;BME280;8065;49.520;11.284;2023-12-20T03:35:47;97266.00;;;8.66;81.81
15932;BME280;8065;49.520;11.284;2023-12-20T03:38:15;97264.09;;;8.75;81.44
15932;BME280;8065;49.520;11.284;2023-12-20T03:40:44;97262.72;;;8.77;81.50
15932;BME280;8065;49.520;11.284;2023-12-20T03:43:12;97271.13;;;8.71;81.82
15932;BME280;8065;49.520;11.284;2023-12-20T03:45:41;97277.38;;;8.66;81.87
15932;BME280;8065;49.520;11.284;2023-12-20T03:48:10;97266.91;;;8.70;81.43
15932;BME280;8065;49.520;11.284;2023-12-20T03:50:41;97266.44;;;8.76;81.32
15932;BME280;8065;49.520;11.284;2023-12-20T03:53:09;97268.47;;;8.79;81.22
15932;BME280;8065;49.520;11.284;2023-12-20T03:55:37;97270.81;;;8.72;81.51
15932;BME280;8065;49.520;11.284;2023-12-20T03:58:05;97266.75;;;8.75;81.28
15932;BME280;8065;49.520;11.284;2023-12-20T04:00:34;97280.47;;;8.68;80.99
15932;BME280;8065;49.520;11.284;2023-12-20T04:03:02;97279.56;;;8.64;81.68
15932;BME280;8065;49.520;11.284;2023-12-20T04:05:30;97275.47;;;8.75;81.44
15932;BME280;8065;49.520;11.284;2023-12-20T04:08:02;97278.13;;;8.75;81.44
15932;BME280;8065;49.520;11.284;2023-12-20T04:10:31;97274.25;;;8.64;81.73
15932;BME280;8065;49.520;11.284;2023-12-20T04:12:59;97279.06;;;8.71;81.75
15932;BME280;8065;49.520;11.284;2023-12-20T04:15:27;97270.19;;;8.75;81.64
15932;BME280;8065;49.520;11.284;2023-12-20T04:17:55;97282.19;;;8.73;81.53
15932;BME280;8065;49.520;11.284;2023-12-20T04:20:24;97273.44;;;8.72;81.45
15932;BME280;8065;49.520;11.284;2023-12-20T04:22:52;97274.38;;;8.68;81.42
15932;BME280;8065;49.520;11.284;2023-12-20T04:25:23;97277.97;;;8.72;81.26
15932;BME280;8065;49.520;11.284;2023-12-20T04:27:51;97275.16;;;8.68;81.49
15932;BME280;8065;49.520;11.284;2023-12-20T04:30:19;97275.16;;;8.68;81.56
15932;BME280;8065;49.520;11.284;2023-12-20T04:32:47;97279.53;;;8.73;81.42
15932;BME280;8065;49.520;11.284;2023-12-20T04:35:16;97272.06;;;8.66;81.79
15932;BME280;8065;49.520;11.284;2023-12-20T04:37:41;97269.72;;;8.65;81.77
15932;BME280;8065;49.520;11.284;2023-12-20T04:40:10;97264.75;;;8.63;81.45
15932;BME280;8065;49.520;11.284;2023-12-20T04:42:41;97269.56;;;8.61;81.50
15932;BME280;8065;49.520;11.284;2023-12-20T04:45:09;97272.69;;;8.63;81.63
15932;BME280;8065;49.520;11.284;2023-12-20T04:47:38;97276.44;;;8.62;81.58
15932;BME280;8065;49.520;11.284;2023-12-20T04:50:07;97282.66;;;8.66;81.56
15932;BME280;8065;49.520;11.284;2023-12-20T04:52:38;97282.34;;;8.76;81.24
15932;BME280;8065;49.520;11.284;2023-12-20T04:55:07;97284.53;;;8.66;81.59
15932;BME280;8065;49.520;11.284;2023-12-20T04:57:35;97283.75;;;8.65;81.80
15932;BME280;8065;49.520;11.284;2023-12-20T05:00:07;97286.09;;;8.75;81.43
15932;BME280;8065;49.520;11.284;2023-12-20T05:02:36;97275.47;;;8.75;81.40
15932;BME280;8065;49.520;11.284;2023-12-20T05:05:05;97292.63;;;8.69;81.47
15932;BME280;8065;49.520;11.284;2023-12-20T05:07:33;97293.41;;;8.70;81.60
15932;BME280;8065;49.520;11.284;2023-12-20T05:10:02;97295.25;;;8.69;81.69
15932;BME280;8065;49.520;11.284;2023-12-20T05:12:33;97301.66;;;8.68;81.73
15932;BME280;8065;49.520;11.284;2023-12-20T05:15:01;97292.78;;;8.73;81.65
15932;BME280;8065;49.520;11.284;2023-12-20T05:17:32;97307.88;;;8.72;81.68
15932;BME280;8065;49.520;11.284;2023-12-20T05:20:01;97316.31;;;8.74;81.84
15932;BME280;8065;49.520;11.284;2023-12-20T05:22:29;97312.09;;;8.73;81.62
15932;BME280;8065;49.520;11.284;2023-12-20T05:24:58;97324.09;;;8.79;81.70
15932;BME280;8065;49.520;11.284;2023-12-20T05:27:26;97324.72;;;8.76;81.67
15932;BME280;8065;49.520;11.284;2023-12-20T05:29:55;97317.88;;;8.75;81.74
15932;BME280;8065;49.520;11.284;2023-12-20T05:32:23;97323.94;;;8.76;81.65
15932;BME280;8065;49.520;11.284;2023-12-20T05:34:54;97329.41;;;8.79;81.66
15932;BME280;8065;49.520;11.284;2023-12-20T05:37:22;97327.84;;;8.78;81.57
15932;BME280;8065;49.520;11.284;2023-12-20T05:39:51;97330.97;;;8.80;81.71
15932;BME280;8065;49.520;11.284;2023-12-20T05:42:19;97334.56;;;8.84;81.65
15932;BME280;8065;49.520;11.284;2023-12-20T05:44:47;97332.84;;;8.80;81.44
15932;BME280;8065;49.520;11.284;2023-12-20T05:47:15;97333.91;;;8.70;82.19
15932;BME280;8065;49.520;11.284;2023-12-20T05:49:44;97333.16;;;8.78;81.77
15932;BME280;8065;49.520;11.284;2023-12-20T05:52:15;97323.16;;;8.75;81.78
15932;BME280;8065;49.520;11.284;2023-12-20T05:54:43;97324.56;;;8.73;81.84
15932;BME280;8065;49.520;11.284;2023-12-20T05:57:12;97331.41;;;8.74;81.56
15932;BME280;8065;49.520;11.284;2023-12-20T05:59:40;97339.53;;;8.77;81.68
15932;BME280;8065;49.520;11.284;2023-12-20T06:02:08;97336.41;;;8.75;81.82
15932;BME280;8065;49.520;11.284;2023-12-20T06:04:36;97336.72;;;8.65;82.54
15932;BME280;8065;49.520;11.284;2023-12-20T06:07:05;97331.25;;;8.70;82.06
15932;BME280;8065;49.520;11.284;2023-12-20T06:09:36;97334.06;;;8.74;82.04
15932;BME280;8065;49.520;11.284;2023-12-20T06:12:05;97333.44;;;8.77;82.04
15932;BME280;8065;49.520;11.284;2023-12-20T06:14:33;97342.19;;;8.77;82.05
15932;BME280;8065;49.520;11.284;2023-12-20T06:17:02;97341.09;;;8.78;82.06
15932;BME280;8065;49.520;11.284;2023-12-20T06:19:30;97346.25;;;8.83;81.95
15932;BME280;8065;49.520;11.284;2023-12-20T06:21:58;97348.41;;;8.81;82.08
15932;BME280;8065;49.520;11.284;2023-12-20T06:24:27;97350.75;;;8.74;82.31
15932;BME280;8065;49.520;11.284;2023-12-20T06:26:58;97355.13;;;8.79;82.17
15932;BME280;8065;49.520;11.284;2023-12-20T06:29:26;97372.25;;;8.73;82.74
15932;BME280;8065;49.520;11.284;2023-12-20T06:31:54;97364.31;;;8.81;81.95
15932;BME280;8065;49.520;11.284;2023-12-20T06:34:22;97372.25;;;8.81;82.50
15932;BME280;8065;49.520;11.284;2023-12-20T06:36:51;97369.91;;;8.71;82.95
15932;BME280;8065;49.520;11.284;2023-12-20T06:39:19;97378.78;;;8.75;82.84
15932;BME280;8065;49.520;11.284;2023-12-20T06:41:47;97379.88;;;8.74;82.92
15932;BME280;8065;49.520;11.284;2023-12-20T06:44:18;97382.38;;;8.79;82.81
15932;BME280;8065;49.520;11.284;2023-12-20T06:46:46;97389.25;;;8.80;83.03
15932;BME280;8065;49.520;11.284;2023-12-20T06:49:15;97376.16;;;8.75;83.01
15932;BME280;8065;49.520;11.284;2023-12-20T06:51:43;97380.81;;;8.78;83.24
15932;BME280;8065;49.520;11.284;2023-12-20T06:54:12;97384.09;;;8.75;83.31
15932;BME280;8065;49.520;11.284;2023-12-20T06:56:40;97385.66;;;8.76;83.27
15932;BME280;8065;49.520;11.284;2023-12-20T06:59:09;97390.47;;;8.74;83.17
15932;BME280;8065;49.520;11.284;2023-12-20T07:01:40;97394.66;;;8.67;83.87
15932;BME280;8065;49.520;11.284;2023-12-20T07:04:08;97394.22;;;8.73;83.30
15932;BME280;8065;49.520;11.284;2023-12-20T07:06:37;97394.59;;;8.98;82.20
15932;BME280;8065;49.520;11.284;2023-12-20T07:09:05;97403.19;;;9.03;82.20
15932;BME280;8065;49.520;11.284;2023-12-20T07:11:34;97419.25;;;9.07;82.23
15932;BME280;8065;49.520;11.284;2023-12-20T07:14:02;97427.06;;;9.12;81.93
15932;BME280;8065;49.520;11.284;2023-12-20T07:16:30;97427.53;;;9.14;81.89
15932;BME280;8065;49.520;11.284;2023-12-20T07:19:01;97426.59;;;9.18;81.75
15932;BME280;8065;49.520;11.284;2023-12-20T07:21:29;97439.16;;;8.96;82.98
15932;BME280;8065;49.520;11.284;2023-12-20T07:23:58;97444.97;;;9.06;82.37
15932;BME280;8065;49.520;11.284;2023-12-20T07:26:26;97436.72;;;9.08;82.50
15932;BME280;8065;49.520;11.284;2023-12-20T07:28:54;97442.75;;;9.00;82.83
15932;BME280;8065;49.520;11.284;2023-12-20T07:31:24;97437.31;;;9.05;82.68
15932;BME280;8065;49.520;11.284;2023-12-20T07:33:52;97441.41;;;9.11;82.43
15932;BME280;8065;49.520;11.284;2023-12-20T07:36:23;97447.16;;;9.13;82.39
15932;BME280;8065;49.520;11.284;2023-12-20T07:38:51;97446.06;;;9.05;82.78
15932;BME280;8065;49.520;11.284;2023-12-20T07:41:20;97456.34;;;9.07;82.72
15932;BME280;8065;49.520;11.284;2023-12-20T07:43:49;97457.13;;;9.07;82.71
15932;BME280;8065;49.520;11.284;2023-12-20T07:46:20;97446.69;;;9.11;82.98
15932;BME280;8065;49.520;11.284;2023-12-20T07:48:49;97452.00;;;9.11;82.90
15932;BME280;8065;49.520;11.284;2023-12-20T07:51:17;97450.44;;;9.10;83.19
15932;BME280;8065;49.520;11.284;2023-12-20T07:53:49;97464.66;;;9.23;82.54
15932;BME280;8065;49.520;11.284;2023-12-20T07:56:18;97460.28;;;9.27;82.55
15932;BME280;8065;49.520;11.284;2023-12-20T07:58:46;97466.38;;;9.27;82.25
15932;BME280;8065;49.520;11.284;2023-12-20T08:01:16;97467.31;;;9.31;82.47
15932;BME280;8065;49.520;11.284;2023-12-20T08:03:44;97467.16;;;9.28;82.46
15932;BME280;8065;49.520;11.284;2023-12-20T08:06:13;97468.13;;;9.40;82.02
15932;BME280;8065;49.520;11.284;2023-12-20T08:08:42;97463.91;;;9.39;82.03
15932;BME280;8065;49.520;11.284;2023-12-20T08:11:13;97465.78;;;9.47;81.86
15932;BME280;8065;49.520;11.284;2023-12-20T08:13:41;97482.31;;;9.44;81.91
15932;BME280;8065;49.520;11.284;2023-12-20T08:16:10;97479.53;;;9.49;81.80
15932;BME280;8065;49.520;11.284;2023-12-20T08:18:38;97465.63;;;9.44;81.97
15932;BME280;8065;49.520;11.284;2023-12-20T08:21:07;97471.56;;;9.41;82.08
15932;BME280;8065;49.520;11.284;2023-12-20T08:23:35;97461.88;;;9.45;82.19
15932;BME280;8065;49.520;11.284;2023-12-20T08:26:04;97462.06;;;9.48;81.90
15932;BME280;8065;49.520;11.284;2023-12-20T08:28:36;97456.75;;;9.48;82.08
15932;BME280;8065;49.520;11.284;2023-12-20T08:31:05;97463.78;;;9.53;82.09
15932;BME280;8065;49.520;11.284;2023-12-20T08:33:33;97465.94;;;9.51;82.13
15932;BME280;8065;49.520;11.284;2023-12-20T08:36:01;97464.53;;;9.53;82.43
15932;BME280;8065;49.520;11.284;2023-12-20T08:38:30;97467.81;;;9.59;82.25
15932;BME280;8065;49.520;11.284;2023-12-20T08:40:59;97467.34;;;9.48;82.68
15932;BME280;8065;49.520;11.284;2023-12-20T08:43:28;97467.50;;;9.52;82.70
15932;BME280;8065;49.520;11.284;2023-12-20T08:45:57;97456.13;;;9.51;82.22
15932;BME280;8065;49.520;11.284;2023-12-20T08:48:25;97452.84;;;9.46;82.36
15932;BME280;8065;49.520;11.284;2023-12-20T08:50:53;97455.63;;;9.58;81.76
15932;BME280;8065;49.520;11.284;2023-12-20T08:53:22;97450.00;;;9.60;81.89
15932;BME280;8065;49.520;11.284;2023-12-20T08:55:50;97450.16;;;9.54;81.77
15932;BME280;8065;49.520;11.284;2023-12-20T08:58:18;97458.94;;;9.46;82.02
15932;BME280;8065;49.520;11.284;2023-12-20T09:00:47;97455.34;;;9.42;82.22
15932;BME280;8065;49.520;11.284;2023-12-20T09:03:18;97461.44;;;9.51;81.87
15932;BME280;8065;49.520;11.284;2023-12-20T09:05:46;97457.34;;;9.54;82.01
15932;BME280;8065;49.520;11.284;2023-12-20T09:08:14;97467.03;;;9.59;82.02
15932;BME280;8065;49.520;11.284;2023-12-20T09:10:43;97468.91;;;9.67;81.12
15932;BME280;8065;49.520;11.284;2023-12-20T09:13:11;97466.41;;;9.79;81.25
15932;BME280;8065;49.520;11.284;2023-12-20T09:15:40;97468.91;;;9.84;81.09
15932;BME280;8065;49.520;11.284;2023-12-20T09:18:11;97471.88;;;10.08;80.56
15932;BME280;8065;49.520;11.284;2023-12-20T09:20:42;97472.00;;;10.38;79.95
15932;BME280;8065;49.520;11.284;2023-12-20T09:23:10;97465.88;;;11.22;77.97
15932;BME280;8065;49.520;11.284;2023-12-20T09:25:38;97467.72;;;12.26;74.75
15932;BME280;8065;49.520;11.284;2023-12-20T09:28:06;97468.06;;;13.06;70.40
15932;BME280;8065;49.520;11.284;2023-12-20T09:30:35;97452.78;;;13.67;67.46
15932;BME280;8065;49.520;11.284;2023-12-20T09:33:05;97451.31;;;14.26;65.87
15932;BME280;8065;49.520;11.284;2023-12-20T09:35:34;97461.56;;;14.83;64.43
15932;BME280;8065;49.520;11.284;2023-12-20T09:38:05;97465.69;;;15.12;61.97
15932;BME280;8065;49.520;11.284;2023-12-20T09:40:34;97459.50;;;15.59;60.75
15932;BME280;8065;49.520;11.284;2023-12-20T09:43:10;97466.84;;;15.81;60.10
15932;BME280;8065;49.520;11.284;2023-12-20T09:45:39;97462.53;;;15.96;59.36
15932;BME280;8065;49.520;11.284;2023-12-20T09:48:10;97468.81;;;16.03;58.57
15932;BME280;8065;49.520;11.284;2023-12-20T09:50:40;97475.84;;;15.73;58.56
15932;BME280;8065;49.520;11.284;2023-12-20T09:53:15;97474.28;;;15.72;58.75
15932;BME280;8065;49.520;11.284;2023-12-20T09:55:43;97472.34;;;15.18;60.37
15932;BME280;8065;49.520;11.284;2023-12-20T09:58:11;97482.22;;;14.67;60.82
15932;BME280;8065;49.520;11.284;2023-12-20T10:00:40;97477.41;;;14.17;62.03
15932;BME280;8065;49.520;11.284;2023-12-20T10:03:08;97476.25;;;13.74;62.75
15932;BME280;8065;49.520;11.284;2023-12-20T10:05:39;97478.97;;;13.37;64.01
15932;BME280;8065;49.520;11.284;2023-12-20T10:08:13;97479.75;;;12.89;65.26
15932;BME280;8065;49.520;11.284;2023-12-20T10:10:42;97471.06;;;12.80;65.61
15932;BME280;8065;49.520;11.284;2023-12-20T10:13:13;97479.66;;;12.40;66.99
15932;BME280;8065;49.520;11.284;2023-12-20T10:15:41;97479.94;;;12.27;67.18
15932;BME280;8065;49.520;11.284;2023-12-20T10:18:11;97476.75;;;12.00;67.90
15932;BME280;8065;49.520;11.284;2023-12-20T10:20:41;97470.97;;;11.57;68.55
15932;BME280;8065;49.520;11.284;2023-12-20T10:23:10;97469.34;;;11.64;68.95
15932;BME280;8065;49.520;11.284;2023-12-20T10:25:41;97461.59;;;11.50;69.17
15932;BME280;8065;49.520;11.284;2023-12-20T10:28:12;97458.41;;;11.36;69.89
15932;BME280;8065;49.520;11.284;2023-12-20T10:33:53;97442.19;;;10.70;70.02
15932;BME280;8065;49.520;11.284;2023-12-20T10:36:23;97440.56;;;10.87;70.80
15932;BME280;8065;49.520;11.284;2023-12-20T10:38:52;97446.06;;;10.81;70.98
15932;BME280;8065;49.520;11.284;2023-12-20T10:41:26;97459.91;;;10.58;70.50
15932;BME280;8065;49.520;11.284;2023-12-20T10:43:56;97446.41;;;10.71;70.46
15932;BME280;8065;49.520;11.284;2023-12-20T10:46:26;97452.25;;;10.47;70.77
15932;BME280;8065;49.520;11.284;2023-12-20T10:48:56;97446.47;;;10.54;70.73
15932;BME280;8065;49.520;11.284;2023-12-20T10:51:23;97438.81;;;10.52;70.76
15932;BME280;8065;49.520;11.284;2023-12-20T10:53:53;97434.91;;;10.50;70.60
15932;BME280;8065;49.520;11.284;2023-12-20T10:56:24;97442.47;;;10.39;71.12
15932;BME280;8065;49.520;11.284;2023-12-20T10:58:54;97444.53;;;10.34;71.05
15932;BME280;8065;49.520;11.284;2023-12-20T11:01:23;97440.16;;;10.29;71.19
15932;BME280;8065;49.520;11.284;2023-12-20T11:03:53;97434.69;;;10.34;71.04
15932;BME280;8065;49.520;11.284;2023-12-20T11:06:29;97430.47;;;10.25;70.75
15932;BME280;8065;49.520;11.284;2023-12-20T11:09:10;97431.13;;;10.04;70.71
15932;BME280;8065;49.520;11.284;2023-12-20T11:11:55;97429.22;;;10.31;70.69
15932;BME280;8065;49.520;11.284;2023-12-20T11:14:29;97424.84;;;10.35;71.16
15932;BME280;8065;49.520;11.284;2023-12-20T11:17:07;97430.41;;;10.42;71.06
15932;BME280;8065;49.520;11.284;2023-12-20T11:19:36;97419.38;;;10.31;70.85
15932;BME280;8065;49.520;11.284;2023-12-20T11:22:05;97416.69;;;10.40;70.90
15932;BME280;8065;49.520;11.284;2023-12-20T11:24:34;97426.38;;;10.36;70.53
15932;BME280;8065;49.520;11.284;2023-12-20T11:27:06;97424.19;;;10.38;71.00
15932;BME280;8065;49.520;11.284;2023-12-20T11:29:34;97416.94;;;10.47;70.71
15932;BME280;8065;49.520;11.284;2023-12-20T11:32:30;97415.78;;;10.36;70.78
15932;BME280;8065;49.520;11.284;2023-12-20T11:34:59;97412.34;;;10.35;71.27
15932;BME280;8065;49.520;11.284;2023-12-20T11:37:34;97407.19;;;10.30;71.39
15932;BME280;8065;49.520;11.284;2023-12-20T11:40:06;97399.84;;;10.36;70.91
15932;BME280;8065;49.520;11.284;2023-12-20T11:42:41;97406.06;;;10.40;70.43
15932;BME280;8065;49.520;11.284;2023-12-20T11:45:10;97420.06;;;10.49;70.57
15932;BME280;8065;49.520;11.284;2023-12-20T11:47:40;97407.16;;;10.39;70.44
15932;BME280;8065;49.520;11.284;2023-12-20T11:50:08;97399.41;;;10.25;70.74
15932;BME280;8065;49.520;11.284;2023-12-20T11:52:37;97397.06;;;10.24;71.13
15932;BME280;8065;49.520;11.284;2023-12-20T11:55:06;97400.81;;;10.23;71.10
15932;BME280;8065;49.520;11.284;2023-12-20T11:57:35;97404.38;;;10.27;71.14
15932;BME280;8065;49.520;11.284;2023-12-20T12:00:07;97393.94;;;10.22;71.43
15932;BME280;8065;49.520;11.284;2023-12-20T12:02:35;97403.94;;;10.25;71.39
15932;BME280;8065;49.520;11.284;2023-12-20T12:05:04;97396.97;;;10.41;71.39
15932;BME280;8065;49.520;11.284;2023-12-20T12:07:33;97409.53;;;10.32;71.16
15932;BME280;8065;49.520;11.284;2023-12-20T12:10:03;97400.28;;;10.38;71.19
15932;BME280;8065;49.520;11.284;2023-12-20T12:12:31;97401.41;;;10.28;70.96
15932;BME280;8065;49.520;11.284;2023-12-20T12:15:00;97408.63;;;10.10;71.38
15932;BME280;8065;49.520;11.284;2023-12-20T12:17:31;97395.03;;;10.21;70.90
15932;BME280;8065;49.520;11.284;2023-12-20T12:20:04;97404.25;;;10.23;71.13
15932;BME280;8065;49.520;11.284;2023-12-20T12:22:33;97394.53;;;10.18;71.33
15932;BME280;8065;49.520;11.284;2023-12-20T12:25:09;97402.84;;;10.08;71.88
15932;BME280;8065;49.520;11.284;2023-12-20T12:27:40;97395.19;;;10.15;71.72
15932;BME280;8065;49.520;11.284;2023-12-20T12:30:09;97400.66;;;10.10;72.02
15932;BME280;8065;49.520;11.284;2023-12-20T12:32:41;97393.81;;;10.01;72.00
15932;BME280;8065;49.520;11.284;2023-12-20T12:35:10;97398.31;;;10.00;72.30
15932;BME280;8065;49.520;11.284;2023-12-20T12:37:39;97399.69;;;10.15;71.65
15932;BME280;8065;49.520;11.284;2023-12-20T12:40:10;97397.53;;;10.08;71.59
15932;BME280;8065;49.520;11.284;2023-12-20T12:42:39;97388.94;;;10.03;71.78
15932;BME280;8065;49.520;11.284;2023-12-20T12:45:08;97394.88;;;10.08;71.00
15932;BME280;8065;49.520;11.284;2023-12-20T12:47:37;97376.44;;;10.21;71.19
15932;BME280;8065;49.520;11.284;2023-12-20T12:50:09;97389.09;;;10.24;71.36
15932;BME280;8065;49.520;11.284;2023-12-20T12:52:37;97391.13;;;10.09;71.51
15932;BME280;8065;49.520;11.284;2023-12-20T12:55:06;97383.31;;;10.04;71.95
15932;BME280;8065;49.520;11.284;2023-12-20T12:57:34;97388.63;;;10.04;71.39
15932;BME280;8065;49.520;11.284;2023-12-20T13:00:03;97383.97;;;10.01;71.96
15932;BME280;8065;49.520;11.284;2023-12-20T13:02:33;97389.41;;;10.13;71.39
15932;BME280;8065;49.520;11.284;2023-12-20T13:05:03;97386.44;;;10.24;70.96
15932;BME280;8065;49.520;11.284;2023-12-20T13:07:34;97383.13;;;10.18;70.72
15932;BME280;8065;49.520;11.284;2023-12-20T13:10:05;97378.16;;;10.16;70.77
15932;BME280;8065;49.520;11.284;2023-12-20T13:12:34;97375.19;;;10.09;70.19
15932;BME280;8065;49.520;11.284;2023-12-20T13:15:02;97385.81;;;10.09;70.41
15932;BME280;8065;49.520;11.284;2023-12-20T13:17:31;97386.56;;;10.18;70.34
15932;BME280;8065;49.520;11.284;2023-12-20T13:19:59;97381.56;;;10.17;71.12
15932;BME280;8065;49.520;11.284;2023-12-20T13:22:28;97388.31;;;10.14;71.17